sensor_id;sensor_type;location;lat;lon;timestamp;P1;durP1;ratioP1;P2;durP2;ratioP2
51836;SDS011;38941;53.254;6.600;2023-06-22T00:01:46;20.75;;;13.98;;
51836;SDS011;38941;53.254;6.600;2023-06-22T00:03:48;22.70;;;13.05;;
51836;SDS011;38941;53.254;6.600;2023-06-22T00:05:49;18.33;;;12.27;;
51836;SDS011;38941;53.254;6.600;2023-06-22T00:07:53;18.50;;;13.35;;
51836;SDS011;38941;53.254;6.600;2023-06-22T00:09:55;20.48;;;13.85;;
51836;SDS011;38941;53.254;6.600;2023-06-22T00:11:56;20.35;;;13.77;;
51836;SDS011;38941;53.254;6.600;2023-06-22T00:13:57;21.00;;;13.30;;
51836;SDS011;38941;53.254;6.600;2023-06-22T00:15:59;24.77;;;14.00;;
51836;SDS011;38941;53.254;6.600;2023-06-22T00:18:00;21.05;;;13.23;;
51836;SDS011;38941;53.254;6.600;2023-06-22T00:20:02;21.20;;;13.70;;
51836;SDS011;38941;53.254;6.600;2023-06-22T00:22:05;20.40;;;14.02;;
51836;SDS011;38941;53.254;6.600;2023-06-22T00:24:08;22.83;;;14.00;;
51836;SDS011;38941;53.254;6.600;2023-06-22T00:26:09;20.77;;;13.35;;
51836;SDS011;38941;53.254;6.600;2023-06-22T00:28:11;20.77;;;13.73;;
51836;SDS011;38941;53.254;6.600;2023-06-22T00:30:12;22.70;;;13.98;;
51836;SDS011;38941;53.254;6.600;2023-06-22T00:32:16;22.23;;;14.02;;
51836;SDS011;38941;53.254;6.600;2023-06-22T00:34:17;17.90;;;11.82;;
51836;SDS011;38941;53.254;6.600;2023-06-22T00:36:19;19.38;;;13.82;;
51836;SDS011;38941;53.254;6.600;2023-06-22T00:38:20;24.60;;;13.70;;
51836;SDS011;38941;53.254;6.600;2023-06-22T00:40:21;26.83;;;13.50;;
51836;SDS011;38941;53.254;6.600;2023-06-22T00:42:22;18.92;;;12.57;;
51836;SDS011;38941;53.254;6.600;2023-06-22T00:44:24;22.83;;;13.65;;
51836;SDS011;38941;53.254;6.600;2023-06-22T00:46:25;19.27;;;12.80;;
51836;SDS011;38941;53.254;6.600;2023-06-22T00:48:25;18.80;;;12.60;;
51836;SDS011;38941;53.254;6.600;2023-06-22T00:50:30;18.10;;;12.02;;
51836;SDS011;38941;53.254;6.600;2023-06-22T00:52:33;19.85;;;12.25;;
51836;SDS011;38941;53.254;6.600;2023-06-22T00:54:38;17.75;;;11.15;;
51836;SDS011;38941;53.254;6.600;2023-06-22T00:56:39;17.83;;;11.38;;
51836;SDS011;38941;53.254;6.600;2023-06-22T00:58:42;19.48;;;12.30;;
51836;SDS011;38941;53.254;6.600;2023-06-22T01:00:43;21.33;;;11.85;;
51836;SDS011;38941;53.254;6.600;2023-06-22T01:02:45;17.77;;;12.27;;
51836;SDS011;38941;53.254;6.600;2023-06-22T01:04:47;20.30;;;11.50;;
51836;SDS011;38941;53.254;6.600;2023-06-22T01:06:54;20.92;;;13.05;;
51836;SDS011;38941;53.254;6.600;2023-06-22T01:09:26;23.38;;;13.85;;
51836;SDS011;38941;53.254;6.600;2023-06-22T01:11:38;18.13;;;13.17;;
51836;SDS011;38941;53.254;6.600;2023-06-22T01:14:03;20.65;;;12.50;;
51836;SDS011;38941;53.254;6.600;2023-06-22T01:16:10;17.25;;;12.00;;
51836;SDS011;38941;53.254;6.600;2023-06-22T01:18:17;14.82;;;11.20;;
51836;SDS011;38941;53.254;6.600;2023-06-22T01:20:20;13.25;;;10.02;;
51836;SDS011;38941;53.254;6.600;2023-06-22T01:22:23;11.60;;;9.15;;
51836;SDS011;38941;53.254;6.600;2023-06-22T01:24:41;10.00;;;8.38;;
51836;SDS011;38941;53.254;6.600;2023-06-22T01:27:14;11.60;;;8.63;;
51836;SDS011;38941;53.254;6.600;2023-06-22T01:29:25;15.82;;;9.35;;
51836;SDS011;38941;53.254;6.600;2023-06-22T01:31:29;15.73;;;9.00;;
51836;SDS011;38941;53.254;6.600;2023-06-22T01:33:32;18.88;;;10.40;;
51836;SDS011;38941;53.254;6.600;2023-06-22T01:35:34;13.88;;;10.18;;
51836;SDS011;38941;53.254;6.600;2023-06-22T01:37:36;12.15;;;9.85;;
51836;SDS011;38941;53.254;6.600;2023-06-22T01:39:38;11.57;;;9.52;;
51836;SDS011;38941;53.254;6.600;2023-06-22T01:41:40;15.35;;;9.65;;
51836;SDS011;38941;53.254;6.600;2023-06-22T01:43:43;15.00;;;10.23;;
51836;SDS011;38941;53.254;6.600;2023-06-22T01:45:46;14.43;;;11.57;;
51836;SDS011;38941;53.254;6.600;2023-06-22T01:47:47;15.48;;;10.85;;
51836;SDS011;38941;53.254;6.600;2023-06-22T01:49:48;16.20;;;12.32;;
51836;SDS011;38941;53.254;6.600;2023-06-22T01:51:51;13.63;;;11.15;;
51836;SDS011;38941;53.254;6.600;2023-06-22T01:53:54;12.68;;;10.25;;
51836;SDS011;38941;53.254;6.600;2023-06-22T01:55:56;14.18;;;10.60;;
51836;SDS011;38941;53.254;6.600;2023-06-22T01:57:58;13.02;;;9.63;;
51836;SDS011;38941;53.254;6.600;2023-06-22T02:00:00;12.13;;;9.70;;
51836;SDS011;38941;53.254;6.600;2023-06-22T02:02:10;11.27;;;8.73;;
51836;SDS011;38941;53.254;6.600;2023-06-22T02:04:13;12.52;;;9.07;;
51836;SDS011;38941;53.254;6.600;2023-06-22T02:06:25;10.52;;;8.15;;
51836;SDS011;38941;53.254;6.600;2023-06-22T02:08:46;13.13;;;9.68;;
51836;SDS011;38941;53.254;6.600;2023-06-22T02:10:51;11.98;;;9.70;;
51836;SDS011;38941;53.254;6.600;2023-06-22T02:12:53;13.90;;;10.35;;
51836;SDS011;38941;53.254;6.600;2023-06-22T02:14:58;16.58;;;10.88;;
51836;SDS011;38941;53.254;6.600;2023-06-22T02:17:01;16.42;;;11.00;;
51836;SDS011;38941;53.254;6.600;2023-06-22T02:19:04;15.57;;;11.60;;
51836;SDS011;38941;53.254;6.600;2023-06-22T02:21:06;16.95;;;10.73;;
51836;SDS011;38941;53.254;6.600;2023-06-22T02:23:07;15.65;;;10.05;;
51836;SDS011;38941;53.254;6.600;2023-06-22T02:25:10;15.57;;;11.60;;
51836;SDS011;38941;53.254;6.600;2023-06-22T02:27:12;15.40;;;10.82;;
51836;SDS011;38941;53.254;6.600;2023-06-22T02:29:12;14.35;;;9.88;;
51836;SDS011;38941;53.254;6.600;2023-06-22T02:31:13;14.20;;;10.68;;
51836;SDS011;38941;53.254;6.600;2023-06-22T02:33:14;12.25;;;8.93;;
51836;SDS011;38941;53.254;6.600;2023-06-22T02:35:15;14.52;;;9.90;;
51836;SDS011;38941;53.254;6.600;2023-06-22T02:37:17;14.73;;;10.02;;
51836;SDS011;38941;53.254;6.600;2023-06-22T02:39:19;13.88;;;9.25;;
51836;SDS011;38941;53.254;6.600;2023-06-22T02:41:24;12.40;;;8.75;;
51836;SDS011;38941;53.254;6.600;2023-06-22T02:43:25;14.13;;;9.85;;
51836;SDS011;38941;53.254;6.600;2023-06-22T02:45:26;14.40;;;9.85;;
51836;SDS011;38941;53.254;6.600;2023-06-22T02:47:26;11.68;;;8.65;;
51836;SDS011;38941;53.254;6.600;2023-06-22T02:49:29;12.57;;;9.68;;
51836;SDS011;38941;53.254;6.600;2023-06-22T02:51:32;11.82;;;8.45;;
51836;SDS011;38941;53.254;6.600;2023-06-22T02:53:34;15.23;;;10.65;;
51836;SDS011;38941;53.254;6.600;2023-06-22T02:55:35;14.73;;;10.60;;
51836;SDS011;38941;53.254;6.600;2023-06-22T02:57:36;18.80;;;11.45;;
51836;SDS011;38941;53.254;6.600;2023-06-22T02:59:44;15.05;;;10.25;;
51836;SDS011;38941;53.254;6.600;2023-06-22T03:01:46;19.27;;;11.60;;
51836;SDS011;38941;53.254;6.600;2023-06-22T03:03:49;16.77;;;11.32;;
51836;SDS011;38941;53.254;6.600;2023-06-22T03:05:50;21.10;;;12.63;;
51836;SDS011;38941;53.254;6.600;2023-06-22T03:07:54;18.65;;;12.30;;
51836;SDS011;38941;53.254;6.600;2023-06-22T03:09:57;18.27;;;12.25;;
51836;SDS011;38941;53.254;6.600;2023-06-22T03:11:59;18.58;;;11.90;;
51836;SDS011;38941;53.254;6.600;2023-06-22T03:14:03;15.60;;;11.25;;
51836;SDS011;38941;53.254;6.600;2023-06-22T03:16:03;13.30;;;9.50;;
